sensor_id;sensor_type;location;lat;lon;timestamp;P1;durP1;ratioP1;P2;durP2;ratioP2
1272;SDS011;629;48.632;10.230;2022-07-17T00:05:48;4.17;;;3.77;;
1272;SDS011;629;48.632;10.230;2022-07-17T00:08:15;4.63;;;4.03;;
1272;SDS011;629;48.632;10.230;2022-07-17T00:10:42;4.40;;;3.77;;
1272;SDS011;629;48.632;10.230;2022-07-17T00:23:32;3.70;;;3.40;;
1272;SDS011;629;48.632;10.230;2022-07-17T00:25:59;4.47;;;4.07;;
1272;SDS011;629;48.632;10.230;2022-07-17T00:28:26;4.60;;;3.80;;
1272;SDS011;629;48.632;10.230;2022-07-17T00:30:53;3.93;;;3.53;;
1272;SDS011;629;48.632;10.230;2022-07-17T00:35:56;3.90;;;3.57;;
1272;SDS011;629;48.632;10.230;2022-07-17T00:38:23;5.27;;;4.70;;
1272;SDS011;629;48.632;10.230;2022-07-17T00:40:53;8.10;;;3.77;;
1272;SDS011;629;48.632;10.230;2022-07-17T00:45:57;4.43;;;4.03;;
1272;SDS011;629;48.632;10.230;2022-07-17T00:48:24;4.10;;;3.70;;
1272;SDS011;629;48.632;10.230;2022-07-17T00:50:54;4.23;;;3.83;;
1272;SDS011;629;48.632;10.230;2022-07-17T00:53:21;4.13;;;3.83;;
1272;SDS011;629;48.632;10.230;2022-07-17T00:55:49;4.37;;;3.97;;
1272;SDS011;629;48.632;10.230;2022-07-17T00:58:21;3.80;;;3.50;;
1272;SDS011;629;48.632;10.230;2022-07-17T01:00:52;4.30;;;3.90;;
1272;SDS011;629;48.632;10.230;2022-07-17T01:03:21;4.10;;;3.70;;
1272;SDS011;629;48.632;10.230;2022-07-17T01:05:49;4.50;;;4.10;;
1272;SDS011;629;48.632;10.230;2022-07-17T01:08:16;4.83;;;3.63;;
1272;SDS011;629;48.632;10.230;2022-07-17T01:10:43;7.37;;;3.87;;
1272;SDS011;629;48.632;10.230;2022-07-17T01:52:02;5.10;;;4.63;;
1272;SDS011;629;48.632;10.230;2022-07-17T02:39:57;5.40;;;4.90;;
1272;SDS011;629;48.632;10.230;2022-07-17T02:42:25;5.30;;;4.90;;
1272;SDS011;629;48.632;10.230;2022-07-17T19:15:03;2.90;;;2.03;;
1272;SDS011;629;48.632;10.230;2022-07-17T19:17:31;2.43;;;2.20;;
1272;SDS011;629;48.632;10.230;2022-07-17T19:19:58;4.10;;;3.30;;
1272;SDS011;629;48.632;10.230;2022-07-17T19:22:26;3.00;;;2.23;;
1272;SDS011;629;48.632;10.230;2022-07-17T19:24:53;2.10;;;1.90;;
1272;SDS011;629;48.632;10.230;2022-07-17T19:27:20;2.17;;;1.90;;
1272;SDS011;629;48.632;10.230;2022-07-17T19:29:47;2.37;;;2.17;;
1272;SDS011;629;48.632;10.230;2022-07-17T19:32:15;2.37;;;1.80;;
1272;SDS011;629;48.632;10.230;2022-07-17T19:34:42;2.57;;;2.37;;
1272;SDS011;629;48.632;10.230;2022-07-17T19:37:09;3.07;;;2.47;;
1272;SDS011;629;48.632;10.230;2022-07-17T19:39:36;2.67;;;1.70;;
1272;SDS011;629;48.632;10.230;2022-07-17T19:42:03;1.73;;;1.60;;
1272;SDS011;629;48.632;10.230;2022-07-17T19:44:30;2.20;;;1.50;;
1272;SDS011;629;48.632;10.230;2022-07-17T19:46:57;2.33;;;1.73;;
1272;SDS011;629;48.632;10.230;2022-07-17T19:49:26;1.60;;;1.50;;
1272;SDS011;629;48.632;10.230;2022-07-17T19:51:53;2.13;;;1.60;;
1272;SDS011;629;48.632;10.230;2022-07-17T19:54:20;1.73;;;1.63;;
1272;SDS011;629;48.632;10.230;2022-07-17T19:56:47;1.60;;;1.50;;
1272;SDS011;629;48.632;10.230;2022-07-17T19:59:15;1.60;;;1.50;;
1272;SDS011;629;48.632;10.230;2022-07-17T20:01:42;1.50;;;1.30;;
1272;SDS011;629;48.632;10.230;2022-07-17T20:04:09;3.00;;;1.80;;
1272;SDS011;629;48.632;10.230;2022-07-17T20:06:38;1.60;;;1.50;;
1272;SDS011;629;48.632;10.230;2022-07-17T20:09:05;2.23;;;1.53;;
1272;SDS011;629;48.632;10.230;2022-07-17T20:11:33;1.53;;;1.43;;
1272;SDS011;629;48.632;10.230;2022-07-17T20:14:00;1.80;;;1.70;;
1272;SDS011;629;48.632;10.230;2022-07-17T20:16:27;4.10;;;1.90;;
1272;SDS011;629;48.632;10.230;2022-07-17T20:18:54;3.10;;;1.90;;
1272;SDS011;629;48.632;10.230;2022-07-17T20:21:21;3.53;;;1.30;;
1272;SDS011;629;48.632;10.230;2022-07-17T20:23:50;2.10;;;1.87;;
1272;SDS011;629;48.632;10.230;2022-07-17T20:26:18;4.30;;;1.77;;
1272;SDS011;629;48.632;10.230;2022-07-17T20:28:45;6.03;;;1.80;;
1272;SDS011;629;48.632;10.230;2022-07-17T20:31:12;3.00;;;1.63;;
1272;SDS011;629;48.632;10.230;2022-07-17T20:33:39;2.27;;;1.67;;
1272;SDS011;629;48.632;10.230;2022-07-17T20:36:06;4.03;;;1.57;;
1272;SDS011;629;48.632;10.230;2022-07-17T20:38:33;1.87;;;1.67;;
1272;SDS011;629;48.632;10.230;2022-07-17T20:41:02;2.20;;;1.80;;
1272;SDS011;629;48.632;10.230;2022-07-17T20:43:30;3.00;;;1.83;;
1272;SDS011;629;48.632;10.230;2022-07-17T20:45:57;1.93;;;1.20;;
1272;SDS011;629;48.632;10.230;2022-07-17T20:48:24;1.67;;;1.57;;
1272;SDS011;629;48.632;10.230;2022-07-17T20:50:51;2.50;;;1.50;;
1272;SDS011;629;48.632;10.230;2022-07-17T20:53:18;4.80;;;1.50;;
1272;SDS011;629;48.632;10.230;2022-07-17T20:55:47;2.33;;;1.40;;
1272;SDS011;629;48.632;10.230;2022-07-17T20:58:15;1.70;;;1.60;;
1272;SDS011;629;48.632;10.230;2022-07-17T21:00:45;1.60;;;1.50;;
1272;SDS011;629;48.632;10.230;2022-07-17T21:03:12;1.60;;;1.50;;
1272;SDS011;629;48.632;10.230;2022-07-17T21:05:39;2.13;;;1.90;;
1272;SDS011;629;48.632;10.230;2022-07-17T21:08:06;1.97;;;1.77;;
1272;SDS011;629;48.632;10.230;2022-07-17T21:10:33;2.07;;;1.87;;
1272;SDS011;629;48.632;10.230;2022-07-17T21:13:01;2.77;;;1.90;;
1272;SDS011;629;48.632;10.230;2022-07-17T21:15:29;1.70;;;1.60;;
1272;SDS011;629;48.632;10.230;2022-07-17T21:17:56;1.87;;;1.77;;
1272;SDS011;629;48.632;10.230;2022-07-17T21:20:23;3.17;;;1.63;;
1272;SDS011;629;48.632;10.230;2022-07-17T21:22:50;1.80;;;1.70;;
1272;SDS011;629;48.632;10.230;2022-07-17T21:25:17;2.00;;;1.90;;
1272;SDS011;629;48.632;10.230;2022-07-17T21:27:44;3.30;;;1.80;;
1272;SDS011;629;48.632;10.230;2022-07-17T21:30:11;2.97;;;2.20;;
1272;SDS011;629;48.632;10.230;2022-07-17T21:32:40;5.33;;;4.50;;
1272;SDS011;629;48.632;10.230;2022-07-17T21:35:07;4.70;;;4.20;;
1272;SDS011;629;48.632;10.230;2022-07-17T21:37:34;4.07;;;3.67;;
1272;SDS011;629;48.632;10.230;2022-07-17T21:40:02;4.87;;;3.30;;
1272;SDS011;629;48.632;10.230;2022-07-17T21:42:29;2.80;;;2.50;;
1272;SDS011;629;48.632;10.230;2022-07-17T21:44:56;3.03;;;2.60;;
1272;SDS011;629;48.632;10.230;2022-07-17T21:47:23;3.33;;;3.00;;
1272;SDS011;629;48.632;10.230;2022-07-17T21:49:52;3.00;;;2.60;;
1272;SDS011;629;48.632;10.230;2022-07-17T21:52:19;15.77;;;9.60;;
1272;SDS011;629;48.632;10.230;2022-07-17T21:54:46;3.70;;;3.00;;
1272;SDS011;629;48.632;10.230;2022-07-17T21:57:13;3.07;;;1.80;;
1272;SDS011;629;48.632;10.230;2022-07-17T21:59:41;1.80;;;1.70;;
1272;SDS011;629;48.632;10.230;2022-07-17T22:02:08;2.47;;;1.80;;
1272;SDS011;629;48.632;10.230;2022-07-17T22:04:36;2.10;;;1.77;;
1272;SDS011;629;48.632;10.230;2022-07-17T22:07:05;2.60;;;1.87;;
1272;SDS011;629;48.632;10.230;2022-07-17T22:09:33;1.63;;;1.50;;
1272;SDS011;629;48.632;10.230;2022-07-17T22:12:00;2.50;;;2.30;;
1272;SDS011;629;48.632;10.230;2022-07-17T22:14:28;2.90;;;1.77;;
1272;SDS011;629;48.632;10.230;2022-07-17T22:16:55;2.93;;;2.23;;
1272;SDS011;629;48.632;10.230;2022-07-17T22:19:23;3.50;;;2.00;;
1272;SDS011;629;48.632;10.230;2022-07-17T22:21:50;2.20;;;2.00;;
1272;SDS011;629;48.632;10.230;2022-07-17T22:24:19;1.93;;;1.70;;
1272;SDS011;629;48.632;10.230;2022-07-17T22:26:46;2.33;;;1.70;;
1272;SDS011;629;48.632;10.230;2022-07-17T22:29:14;2.30;;;1.77;;
1272;SDS011;629;48.632;10.230;2022-07-17T22:31:41;2.70;;;1.97;;
1272;SDS011;629;48.632;10.230;2022-07-17T22:34:08;2.80;;;1.90;;
1272;SDS011;629;48.632;10.230;2022-07-17T22:36:35;2.67;;;1.77;;
1272;SDS011;629;48.632;10.230;2022-07-17T22:39:02;1.60;;;1.50;;
1272;SDS011;629;48.632;10.230;2022-07-17T22:41:31;1.80;;;1.50;;
1272;SDS011;629;48.632;10.230;2022-07-17T22:43:58;2.03;;;1.80;;
1272;SDS011;629;48.632;10.230;2022-07-17T22:46:25;2.43;;;1.80;;
1272;SDS011;629;48.632;10.230;2022-07-17T22:48:51;2.17;;;1.90;;
1272;SDS011;629;48.632;10.230;2022-07-17T22:51:19;2.00;;;1.80;;
1272;SDS011;629;48.632;10.230;2022-07-17T22:53:45;4.47;;;1.80;;
1272;SDS011;629;48.632;10.230;2022-07-17T22:56:12;1.53;;;1.40;;
1272;SDS011;629;48.632;10.230;2022-07-17T22:58:41;2.33;;;1.70;;
1272;SDS011;629;48.632;10.230;2022-07-17T23:01:08;1.40;;;1.30;;
1272;SDS011;629;48.632;10.230;2022-07-17T23:03:35;2.03;;;1.50;;
1272;SDS011;629;48.632;10.230;2022-07-17T23:06:03;1.93;;;1.63;;
1272;SDS011;629;48.632;10.230;2022-07-17T23:08:31;2.60;;;1.77;;
1272;SDS011;629;48.632;10.230;2022-07-17T23:10:58;2.40;;;1.77;;
1272;SDS011;629;48.632;10.230;2022-07-17T23:13:25;1.70;;;1.60;;
1272;SDS011;629;48.632;10.230;2022-07-17T23:15:54;2.10;;;1.70;;
1272;SDS011;629;48.632;10.230;2022-07-17T23:18:21;1.83;;;1.67;;
1272;SDS011;629;48.632;10.230;2022-07-17T23:20:48;3.23;;;1.57;;
1272;SDS011;629;48.632;10.230;2022-07-17T23:23:15;2.83;;;1.60;;
1272;SDS011;629;48.632;10.230;2022-07-17T23:25:42;1.70;;;1.60;;
1272;SDS011;629;48.632;10.230;2022-07-17T23:28:09;6.60;;;1.90;;
1272;SDS011;629;48.632;10.230;2022-07-17T23:30:36;2.97;;;1.30;;
1272;SDS011;629;48.632;10.230;2022-07-17T23:33:05;2.33;;;1.90;;
1272;SDS011;629;48.632;10.230;2022-07-17T23:35:33;2.07;;;1.33;;
1272;SDS011;629;48.632;10.230;2022-07-17T23:38:00;2.30;;;1.73;;
1272;SDS011;629;48.632;10.230;2022-07-17T23:40:27;1.93;;;1.50;;
1272;SDS011;629;48.632;10.230;2022-07-17T23:42:54;1.80;;;1.50;;
1272;SDS011;629;48.632;10.230;2022-07-17T23:45:21;3.60;;;1.80;;
1272;SDS011;629;48.632;10.230;2022-07-17T23:47:49;1.70;;;1.40;;
1272;SDS011;629;48.632;10.230;2022-07-17T23:50:17;1.63;;;1.53;;
1272;SDS011;629;48.632;10.230;2022-07-17T23:52:44;1.40;;;1.20;;
1272;SDS011;629;48.632;10.230;2022-07-17T23:55:11;1.47;;;1.37;;
1272;SDS011;629;48.632;10.230;2022-07-17T23:57:38;2.50;;;1.73;;
